createdAt,value
2022-11-22T00:00:47.577Z,99918.16
2022-11-22T00:03:15.076Z,99917.25
2022-11-22T00:05:42.573Z,99915.59
2022-11-22T00:08:10.463Z,99914.69
2022-11-22T00:10:39.604Z,99917.34
2022-11-22T00:13:07.109Z,99915.66
2022-11-22T00:15:34.945Z,99908.00
2022-11-22T00:18:02.560Z,99907.16
2022-11-22T00:20:30.187Z,99905.50
2022-11-22T00:23:00.786Z,99902.09
2022-11-22T00:25:28.336Z,99901.25
2022-11-22T00:27:57.136Z,99898.75
2022-11-22T00:30:24.679Z,99891.06
2022-11-22T00:32:52.193Z,99890.22
2022-11-22T00:35:19.701Z,99881.69
2022-11-22T00:37:47.741Z,99881.69
2022-11-22T00:40:15.677Z,99879.16
2022-11-22T00:42:43.276Z,99874.06
2022-11-22T00:45:12.703Z,99875.78
2022-11-22T00:47:40.245Z,99870.69
2022-11-22T00:50:08.357Z,99878.41
2022-11-22T00:52:35.889Z,99889.44
2022-11-22T00:55:03.456Z,99899.69
2022-11-22T00:57:31.082Z,99882.59
2022-11-22T00:59:58.604Z,99891.09
2022-11-22T01:02:27.540Z,99884.28
2022-11-22T01:04:55.012Z,99881.72
2022-11-22T01:07:22.623Z,99879.13
2022-11-22T01:09:50.130Z,99870.53
2022-11-22T01:12:17.668Z,99867.97
2022-11-22T01:14:45.153Z,99868.84
2022-11-22T01:17:12.768Z,99857.69
2022-11-22T01:19:41.827Z,99854.31
2022-11-22T01:22:09.364Z,99834.66
2022-11-22T01:24:36.840Z,99846.53
2022-11-22T01:27:04.400Z,99863.56
2022-11-22T01:29:32.081Z,99864.38
2022-11-22T01:31:59.806Z,99848.97
2022-11-22T01:34:27.398Z,99854.09
2022-11-22T01:36:56.316Z,99843.00
2022-11-22T01:39:23.800Z,99842.16
2022-11-22T01:41:51.308Z,99847.22
2022-11-22T01:44:20.304Z,99857.47
2022-11-22T01:46:50.242Z,99860.84
2022-11-22T01:49:27.247Z,99859.97
2022-11-22T01:52:00.666Z,99868.53
2022-11-22T01:54:33.298Z,99862.53
2022-11-22T01:57:06.650Z,99872.78
2022-11-22T01:59:36.523Z,99877.84
2022-11-22T02:02:05.250Z,99873.59
2022-11-22T02:04:33.862Z,99877.00
2022-11-22T02:07:09.560Z,99859.97
2022-11-22T02:09:38.760Z,99870.28
2022-11-22T02:12:09.345Z,99868.59
2022-11-22T02:14:39.337Z,99870.31
2022-11-22T02:17:07.102Z,99873.75
2022-11-22T02:19:41.536Z,99863.50
2022-11-22T02:22:20.559Z,99857.56
2022-11-22T02:24:55.529Z,99857.56
2022-11-22T02:27:24.769Z,99864.41
2022-11-22T02:29:52.349Z,99851.56
2022-11-22T02:32:19.901Z,99841.34
2022-11-22T02:34:48.837Z,99834.47
2022-11-22T02:37:20.212Z,99831.91
2022-11-22T02:39:49.183Z,99832.75
2022-11-22T02:42:16.844Z,99829.31
2022-11-22T02:44:45.720Z,99831.03
2022-11-22T02:47:13.329Z,99819.06
2022-11-22T02:49:40.853Z,99823.41
2022-11-22T02:52:08.346Z,99831.09
2022-11-22T02:54:35.879Z,99824.34
2022-11-22T02:57:03.845Z,99810.72
2022-11-22T02:59:31.877Z,99807.34
2022-11-22T03:02:03.429Z,99798.00
2022-11-22T03:04:31.367Z,99804.88
2022-11-22T03:07:00.919Z,99803.13
2022-11-22T03:09:29.558Z,99794.63
2022-11-22T03:11:57.262Z,99794.66
2022-11-22T03:14:25.143Z,99798.88
2022-11-22T03:16:52.907Z,99804.88
2022-11-22T03:19:22.366Z,99798.88
2022-11-22T03:21:49.876Z,99792.94
2022-11-22T03:24:17.481Z,99786.13
2022-11-22T03:26:47.901Z,99784.47
2022-11-22T03:29:15.742Z,99793.81
2022-11-22T03:31:43.244Z,99793.81
2022-11-22T03:34:12.349Z,99797.31
2022-11-22T03:36:41.134Z,99799.88
2022-11-22T03:39:08.729Z,99807.59
2022-11-22T03:41:36.230Z,99809.31
2022-11-22T03:44:04.909Z,99804.19
2022-11-22T03:46:32.456Z,99796.59
2022-11-22T03:48:59.943Z,99786.34
2022-11-22T03:51:27.562Z,99794.91
2022-11-22T03:53:56.419Z,99788.91
2022-11-22T03:56:23.908Z,99794.03
2022-11-22T03:58:51.462Z,99790.63
2022-11-22T04:01:19.038Z,99798.34
2022-11-22T04:03:46.689Z,99804.28
2022-11-22T04:06:14.194Z,99794.91
2022-11-22T04:08:41.822Z,99786.34
2022-11-22T04:11:10.788Z,99791.47
2022-11-22T04:13:55.985Z,99781.25
2022-11-22T04:16:23.546Z,99780.34
2022-11-22T04:18:51.054Z,99776.94
2022-11-22T04:21:35.612Z,99781.28
2022-11-22T04:24:20.985Z,99776.94
2022-11-22T04:26:50.292Z,99771.88
2022-11-22T04:29:19.968Z,99782.13
2022-11-22T04:32:05.844Z,99769.22
2022-11-22T04:34:33.660Z,99778.59
2022-11-22T04:37:01.932Z,99764.94
2022-11-22T04:39:29.956Z,99775.94
2022-11-22T04:42:17.368Z,99762.31
2022-11-22T04:44:45.913Z,99786.19
2022-11-22T04:47:37.819Z,99774.19
2022-11-22T04:50:28.833Z,99770.69
2022-11-22T04:52:56.318Z,99768.91
2022-11-22T04:55:24.349Z,99760.41
2022-11-22T04:57:58.863Z,99770.59
2022-11-22T05:00:28.239Z,99766.28
2022-11-22T05:02:55.843Z,99770.59
2022-11-22T05:05:23.312Z,99775.66
2022-11-22T05:07:50.889Z,99779.84
2022-11-22T05:10:24.485Z,99782.34
2022-11-22T05:12:55.361Z,99780.63
2022-11-22T05:15:22.874Z,99788.25
2022-11-22T05:17:50.440Z,99787.34
2022-11-22T05:20:18.023Z,99789.03
2022-11-22T05:23:02.970Z,99790.78
2022-11-22T05:25:30.623Z,99779.59
2022-11-22T05:27:59.447Z,99781.25
2022-11-22T05:30:26.909Z,99771.81
2022-11-22T05:32:55.970Z,99769.19
2022-11-22T05:35:23.507Z,99758.91
2022-11-22T05:37:51.007Z,99756.34
2022-11-22T05:40:18.447Z,99769.09
2022-11-22T05:42:45.894Z,99772.47
2022-11-22T05:45:14.865Z,99767.38
2022-11-22T05:47:42.676Z,99772.44
2022-11-22T05:50:11.083Z,99765.59
2022-11-22T05:52:39.301Z,99765.53
2022-11-22T05:55:07.922Z,99762.16
2022-11-22T05:57:35.441Z,99766.38
2022-11-22T06:00:03.457Z,99780.00
2022-11-22T06:02:42.669Z,99776.56
2022-11-22T06:05:12.202Z,99785.91
2022-11-22T06:07:41.321Z,99780.78
2022-11-22T06:10:11.277Z,99778.22
2022-11-22T06:12:41.190Z,99779.91
2022-11-22T06:15:11.722Z,99782.44
2022-11-22T06:17:45.145Z,99776.44
2022-11-22T06:23:54.905Z,99791.72
2022-11-22T06:27:18.319Z,99801.84
2022-11-22T06:31:46.888Z,99799.28
2022-11-22T06:45:41.135Z,99808.63
2022-11-22T06:49:11.102Z,99806.06
2022-11-22T06:51:52.415Z,99823.06
2022-11-22T06:59:17.052Z,99813.41
2022-11-22T07:01:53.972Z,99814.13
2022-11-22T07:04:23.099Z,99816.66
2022-11-22T07:06:53.196Z,99808.09
2022-11-22T07:09:21.320Z,99810.59
2022-11-22T07:11:49.449Z,99813.94
2022-11-22T07:14:18.170Z,99825.84
2022-11-22T07:16:49.148Z,99830.84
2022-11-22T07:19:17.583Z,99846.09
2022-11-22T07:21:45.987Z,99837.47
2022-11-22T07:24:19.469Z,99857.91
2022-11-22T07:26:47.798Z,99851.84
2022-11-22T07:29:16.679Z,99846.63
2022-11-22T07:31:48.134Z,99850.84
2022-11-22T07:34:18.107Z,99839.72
2022-11-22T07:39:43.675Z,99834.47
2022-11-22T07:42:58.584Z,99842.13
2022-11-22T07:45:47.745Z,99841.22
2022-11-22T07:51:36.225Z,99840.38
2022-11-22T07:54:57.863Z,99842.06
2022-11-22T08:01:55.020Z,99825.72
2022-11-22T08:11:42.380Z,99798.31
2022-11-22T08:14:54.262Z,99808.56
2022-11-22T08:17:39.575Z,99808.50
2022-11-22T08:20:15.105Z,99817.84
2022-11-22T08:23:01.902Z,99800.59
2022-11-22T08:25:32.805Z,99803.94
2022-11-22T08:28:13.728Z,99809.03
2022-11-22T08:30:48.191Z,99802.09
2022-11-22T08:33:31.497Z,99807.22
2022-11-22T08:36:08.479Z,99788.41
2022-11-22T08:38:45.321Z,99790.91
2022-11-22T08:41:30.498Z,99790.91
2022-11-22T08:52:06.283Z,99793.25
2022-11-22T08:59:50.080Z,99798.94
2022-11-22T09:09:42.471Z,99824.53
2022-11-22T09:14:15.437Z,99836.34
2022-11-22T09:18:08.603Z,99854.06
2022-11-22T09:21:16.483Z,99866.72
2022-11-22T09:24:31.441Z,99861.41
2022-11-22T09:27:02.796Z,99856.16
2022-11-22T09:30:08.158Z,99850.97
2022-11-22T09:32:36.838Z,99852.56
2022-11-22T09:35:11.911Z,99843.94
2022-11-22T09:37:40.219Z,99846.41
2022-11-22T09:40:21.473Z,99845.41
2022-11-22T09:43:25.998Z,99846.16
2022-11-22T09:46:44.690Z,99846.81
2022-11-22T09:50:10.580Z,99849.34
2022-11-22T09:53:13.234Z,99849.28
2022-11-22T10:00:35.405Z,99858.47
2022-11-22T10:19:49.493Z,99851.84
2022-11-22T10:22:19.494Z,99862.09
2022-11-22T10:24:48.266Z,99852.59
2022-11-22T10:27:18.106Z,99858.41
2022-11-22T10:29:53.789Z,99859.97
2022-11-22T10:32:28.807Z,99858.03
2022-11-22T10:35:14.656Z,99860.50
2022-11-22T10:37:52.270Z,99851.78
2022-11-22T10:40:27.100Z,99861.13
2022-11-22T10:43:12.252Z,99857.81
2022-11-22T10:45:47.528Z,99865.41
2022-11-22T10:48:29.102Z,99866.22
2022-11-22T10:51:20.377Z,99867.84
2022-11-22T10:54:39.067Z,99858.41
2022-11-22T10:57:41.264Z,99855.72
2022-11-22T11:00:39.403Z,99846.97
2022-11-22T11:03:22.235Z,99844.34
2022-11-22T11:09:54.886Z,99846.72
2022-11-22T11:13:03.332Z,99856.09
2022-11-22T11:15:56.064Z,99856.00
2022-11-22T11:26:07.056Z,99853.88
2022-11-22T11:29:01.923Z,99843.47
2022-11-22T11:51:21.885Z,99831.63
2022-11-22T11:55:04.461Z,99834.97
2022-11-22T11:57:46.655Z,99822.91
2022-11-22T12:00:24.789Z,99823.66
2022-11-22T12:03:07.572Z,99826.16
2022-11-22T12:05:38.954Z,99826.03
2022-11-22T12:08:49.217Z,99836.25
2022-11-22T12:11:52.267Z,99837.09
2022-11-22T12:14:37.748Z,99831.81
2022-11-22T12:17:28.903Z,99826.53
2022-11-22T12:20:06.908Z,99821.34
2022-11-22T12:22:49.782Z,99828.97
2022-11-22T12:25:36.600Z,99821.13
2022-11-22T12:28:20.149Z,99824.53
2022-11-22T12:30:57.678Z,99816.81
2022-11-22T12:37:25.346Z,99813.34
2022-11-22T12:39:57.077Z,99809.78
2022-11-22T12:42:35.702Z,99800.44
2022-11-22T12:45:18.445Z,99791.78
2022-11-22T12:47:51.845Z,99791.78
2022-11-22T12:50:39.916Z,99796.88
2022-11-22T12:53:14.330Z,99812.25
2022-11-22T12:55:49.947Z,99806.22
2022-11-22T12:58:22.357Z,99819.75
2022-11-22T13:01:05.729Z,99823.91
2022-11-22T13:03:39.721Z,99807.59
2022-11-22T13:06:09.874Z,99813.63
2022-11-22T13:08:42.832Z,99815.38
2022-11-22T13:11:17.472Z,99810.16
2022-11-22T13:13:48.705Z,99805.72
2022-11-22T13:16:16.389Z,99808.97
2022-11-22T13:18:47.685Z,99800.50
2022-11-22T13:21:23.363Z,99791.88
2022-11-22T13:24:08.961Z,99791.97
2022-11-22T13:26:43.304Z,99790.16
2022-11-22T13:29:21.999Z,99790.16
2022-11-22T13:32:04.523Z,99788.50
2022-11-22T13:34:33.960Z,99798.78
2022-11-22T13:37:10.898Z,99794.41
2022-11-22T13:39:44.368Z,99794.25
2022-11-22T13:42:18.570Z,99816.44
2022-11-22T13:45:13.503Z,99807.75
2022-11-22T13:47:43.112Z,99818.78
2022-11-22T13:50:57.042Z,99812.75
2022-11-22T13:53:28.944Z,99808.50
2022-11-22T13:55:58.101Z,99797.47
2022-11-22T13:58:52.492Z,99805.25
2022-11-22T14:01:58.228Z,99795.03
2022-11-22T14:04:34.878Z,99793.28
2022-11-22T14:07:05.911Z,99796.66
2022-11-22T14:09:38.319Z,99797.53
2022-11-22T14:12:24.085Z,99793.28
2022-11-22T14:15:12.663Z,99798.41
2022-11-22T14:17:51.796Z,99799.34
2022-11-22T14:20:35.963Z,99799.25
2022-11-22T14:23:11.382Z,99800.09
2022-11-22T14:25:56.590Z,99785.63
2022-11-22T14:28:59.515Z,99807.94
2022-11-22T14:31:32.075Z,99796.84
2022-11-22T14:34:21.809Z,99804.47
2022-11-22T14:37:37.887Z,99807.81
2022-11-22T14:40:27.102Z,99805.19
2022-11-22T14:43:00.663Z,99811.97
2022-11-22T14:45:39.672Z,99821.44
2022-11-22T14:48:17.595Z,99816.28
2022-11-22T14:50:49.113Z,99817.97
2022-11-22T14:53:24.163Z,99822.25
2022-11-22T14:55:55.745Z,99806.88
2022-11-22T14:58:26.716Z,99802.66
2022-11-22T15:01:16.197Z,99801.00
2022-11-22T15:09:21.286Z,99813.09
2022-11-22T15:09:21.751Z,99810.47
2022-11-22T15:10:25.719Z,99806.13
2022-11-22T15:13:08.966Z,99806.97
2022-11-22T15:59:01.638Z,99855.09
2022-11-22T16:01:29.529Z,99857.59
2022-11-22T16:03:59.601Z,99851.63
2022-11-22T16:06:30.737Z,99852.44
2022-11-22T16:09:01.573Z,99853.19
2022-11-22T16:11:34.725Z,99857.53
2022-11-22T16:14:02.278Z,99856.63
2022-11-22T16:16:31.481Z,99862.66
2022-11-22T16:19:21.972Z,99858.41
2022-11-22T16:22:28.569Z,99858.41
2022-11-22T16:25:23.475Z,99866.91
2022-11-22T16:27:52.360Z,99848.97
2022-11-22T16:30:23.602Z,99852.50
2022-11-22T16:32:53.732Z,99855.84
2022-11-22T16:35:29.455Z,99855.94
2022-11-22T16:37:57.397Z,99845.72
2022-11-22T16:40:24.976Z,99853.44
2022-11-22T16:42:54.021Z,99850.84
2022-11-22T16:45:22.952Z,99849.19
2022-11-22T16:48:03.810Z,99850.00
2022-11-22T16:50:39.776Z,99850.91
2022-11-22T16:53:12.146Z,99856.06
2022-11-22T16:55:40.210Z,99854.31
2022-11-22T16:58:16.398Z,99861.28
2022-11-22T17:00:44.975Z,99873.22
2022-11-22T17:03:15.538Z,99868.00
2022-11-22T17:05:43.019Z,99879.91
2022-11-22T17:08:13.425Z,99884.94
2022-11-22T17:10:43.898Z,99890.13
2022-11-22T17:13:17.247Z,99886.66
2022-11-22T17:15:45.264Z,99900.22
2022-11-22T17:18:12.718Z,99900.06
2022-11-22T17:20:40.615Z,99902.50
2022-11-22T17:23:13.965Z,99899.81
2022-11-22T17:25:41.497Z,99892.16
2022-11-22T17:28:08.923Z,99886.25
2022-11-22T17:30:37.994Z,99888.81
2022-11-22T17:33:05.528Z,99895.72
2022-11-22T17:35:37.063Z,99895.78
2022-11-22T17:38:05.217Z,99894.09
2022-11-22T17:40:32.764Z,99896.59
2022-11-22T17:43:00.341Z,99901.69
2022-11-22T17:45:28.069Z,99905.94
2022-11-22T17:47:56.856Z,99898.22
2022-11-22T17:50:24.371Z,99905.94
2022-11-22T17:52:52.878Z,99901.63
2022-11-22T17:55:20.339Z,99911.91
2022-11-22T17:57:51.609Z,99916.16
2022-11-22T18:00:28.428Z,99913.53
2022-11-22T18:03:01.488Z,99921.16
2022-11-22T18:05:35.450Z,99925.28
2022-11-22T18:08:03.038Z,99932.13
2022-11-22T18:10:30.583Z,99931.25
2022-11-22T18:13:20.331Z,99945.03
2022-11-22T18:15:46.210Z,99932.19
2022-11-22T18:18:40.311Z,99938.22
2022-11-22T18:21:04.022Z,99943.50
2022-11-22T18:23:33.996Z,99947.88
2022-11-22T18:26:38.831Z,99949.69
2022-11-22T18:29:16.115Z,99953.97
2022-11-22T18:31:51.235Z,99952.25
2022-11-22T18:34:27.436Z,99948.75
2022-11-22T18:37:00.450Z,99943.63
2022-11-22T18:39:36.291Z,99951.28
2022-11-22T18:42:05.217Z,99954.72
2022-11-22T18:44:32.715Z,99947.88
2022-11-22T18:47:00.270Z,99962.50
2022-11-22T18:49:29.436Z,99955.66
2022-11-22T18:51:57.307Z,99958.16
2022-11-22T18:55:00.440Z,99954.72
2022-11-22T18:57:47.346Z,99952.03
2022-11-22T19:00:17.198Z,99952.03
2022-11-22T19:02:45.717Z,99934.13
2022-11-22T19:05:15.318Z,99935.00
2022-11-22T19:07:44.124Z,99948.69
2022-11-22T19:10:11.804Z,99940.09
2022-11-22T19:12:39.401Z,99949.56
2022-11-22T19:15:08.138Z,99948.63
2022-11-22T19:17:39.029Z,99957.06
2022-11-22T19:20:39.239Z,99957.13
2022-11-22T19:23:50.937Z,99962.19
2022-11-22T19:26:56.067Z,99969.91
2022-11-22T19:29:26.968Z,99965.69
2022-11-22T19:36:09.930Z,99980.16
2022-11-22T19:38:42.041Z,99985.22
2022-11-22T19:41:20.335Z,99985.16
2022-11-22T19:43:54.089Z,99983.34
2022-11-22T19:46:21.621Z,99985.88
2022-11-22T19:48:55.003Z,99989.22
2022-11-22T19:51:24.076Z,99983.09
2022-11-22T19:54:20.913Z,99992.50
2022-11-22T19:56:50.800Z,99987.28
2022-11-22T19:59:19.732Z,99983.84
2022-11-22T20:01:50.572Z,99989.94
2022-11-22T20:04:21.446Z,99971.06
2022-11-22T20:06:50.529Z,99978.78
2022-11-22T20:09:28.466Z,99978.84
2022-11-22T20:12:00.813Z,99982.34
2022-11-22T20:14:39.255Z,99986.56
2022-11-22T20:17:07.177Z,99989.06
2022-11-22T20:19:35.539Z,99979.63
2022-11-22T20:22:06.371Z,99978.72
2022-11-22T20:24:42.158Z,99977.81
2022-11-22T20:27:13.973Z,99978.66
2022-11-22T20:29:45.046Z,99983.66
2022-11-22T20:32:20.712Z,99997.28
2022-11-22T20:34:51.464Z,99993.84
2022-11-22T20:37:46.730Z,99993.84
2022-11-22T20:40:14.516Z,99988.69
2022-11-22T20:42:46.707Z,99992.03
2022-11-22T20:45:23.861Z,99991.19
2022-11-22T20:48:16.705Z,99990.31
2022-11-22T20:50:50.841Z,99984.28
2022-11-22T20:53:18.960Z,99992.09
2022-11-22T20:56:10.722Z,99969.84
2022-11-22T21:01:29.544Z,99982.06
2022-11-22T21:03:57.155Z,99975.31
2022-11-22T21:06:42.464Z,99978.66
2022-11-22T21:09:20.650Z,99975.31
2022-11-22T21:11:54.156Z,99980.47
2022-11-22T21:14:21.703Z,99969.28
2022-11-22T21:16:50.592Z,99971.00
2022-11-22T21:19:18.590Z,99976.06
2022-11-22T21:21:46.198Z,99965.78
2022-11-22T21:24:13.992Z,99973.50
2022-11-22T21:26:41.833Z,99984.72
2022-11-22T21:29:16.485Z,99993.25
2022-11-22T21:31:44.549Z,99990.56
2022-11-22T21:34:15.900Z,99988.81
2022-11-22T21:36:43.759Z,99998.97
2022-11-22T21:39:11.551Z,99973.25
2022-11-22T21:41:40.879Z,99986.03
2022-11-22T21:44:09.372Z,99991.13
2022-11-22T21:46:37.502Z,99984.16
2022-11-22T21:49:05.182Z,99989.31
2022-11-22T21:51:34.173Z,99981.66
2022-11-22T21:54:02.888Z,99965.44
2022-11-22T21:56:31.591Z,99968.91
2022-11-22T21:58:59.374Z,99968.16
2022-11-22T22:01:27.763Z,99983.66
2022-11-22T22:03:55.761Z,99985.47
2022-11-22T22:06:23.602Z,99988.19
2022-11-22T22:08:52.594Z,99994.28
2022-11-22T22:11:20.208Z,100000.22
2022-11-22T22:13:47.669Z,99990.75
2022-11-22T22:16:19.019Z,99990.75
2022-11-22T22:18:47.170Z,99996.72
2022-11-22T22:21:15.768Z,100014.00
2022-11-22T22:23:44.896Z,100012.31
2022-11-22T22:26:15.320Z,100004.59
2022-11-22T22:28:44.174Z,100002.94
2022-11-22T22:31:13.726Z,100002.09
2022-11-22T22:33:42.396Z,99995.41
2022-11-22T22:36:11.305Z,100014.25
2022-11-22T22:38:39.733Z,100005.69
2022-11-22T22:41:08.316Z,100009.31
2022-11-22T22:43:40.201Z,100010.22
2022-11-22T22:46:10.662Z,100012.84
2022-11-22T22:48:38.457Z,100008.59
2022-11-22T22:51:08.052Z,100006.06
2022-11-22T22:53:35.848Z,100002.69
2022-11-22T22:56:03.776Z,100010.47
2022-11-22T22:58:31.287Z,100007.06
2022-11-22T23:01:07.159Z,99997.72
2022-11-22T23:03:34.802Z,100001.28
2022-11-22T23:06:06.266Z,99998.78
2022-11-22T23:08:33.775Z,100003.16
2022-11-22T23:11:06.431Z,99992.06
2022-11-22T23:13:36.280Z,99992.13
2022-11-22T23:16:04.059Z,99999.03
2022-11-22T23:18:36.419Z,99995.63
2022-11-22T23:21:05.340Z,99987.91
2022-11-22T23:23:33.174Z,99987.03
2022-11-22T23:26:02.749Z,99994.84
2022-11-22T23:28:30.319Z,99993.06
2022-11-22T23:30:58.111Z,100001.66
2022-11-22T23:33:25.657Z,99996.44
2022-11-22T23:35:54.464Z,99996.44
2022-11-22T23:38:21.980Z,100005.78
2022-11-22T23:40:53.742Z,99999.72
2022-11-22T23:43:21.270Z,100009.06
2022-11-22T23:45:48.757Z,99990.13
2022-11-22T23:48:16.684Z,100002.09
2022-11-22T23:50:44.364Z,99993.56
2022-11-22T23:53:13.205Z,99998.66
2022-11-22T23:55:40.671Z,99996.13
2022-11-22T23:58:08.305Z,99991.06
